sensor_id;sensor_type;location;lat;lon;timestamp;P1;durP1;ratioP1;P2;durP2;ratioP2
25980;SDS011;13772;52.996;9.124;2023-03-24T07:58:49;6.10;;;1.35;;
25980;SDS011;13772;52.996;9.124;2023-03-24T08:01:24;5.53;;;1.15;;
25980;SDS011;13772;52.996;9.124;2023-03-24T08:03:51;5.22;;;1.65;;
25980;SDS011;13772;52.996;9.124;2023-03-24T08:06:46;4.57;;;1.40;;
25980;SDS011;13772;52.996;9.124;2023-03-24T08:09:11;4.70;;;1.20;;
25980;SDS011;13772;52.996;9.124;2023-03-24T08:11:37;4.75;;;1.38;;
25980;SDS011;13772;52.996;9.124;2023-03-24T08:14:02;6.35;;;1.63;;
25980;SDS011;13772;52.996;9.124;2023-03-24T08:16:27;7.00;;;1.40;;
25980;SDS011;13772;52.996;9.124;2023-03-24T08:18:53;6.63;;;1.50;;
25980;SDS011;13772;52.996;9.124;2023-03-24T08:21:22;6.93;;;1.13;;
25980;SDS011;13772;52.996;9.124;2023-03-24T08:23:47;9.57;;;2.28;;
25980;SDS011;13772;52.996;9.124;2023-03-24T08:26:12;6.40;;;1.58;;
25980;SDS011;13772;52.996;9.124;2023-03-24T08:28:38;8.52;;;1.60;;
25980;SDS011;13772;52.996;9.124;2023-03-24T08:31:03;7.10;;;1.33;;
25980;SDS011;13772;52.996;9.124;2023-03-24T08:33:28;9.32;;;1.52;;
25980;SDS011;13772;52.996;9.124;2023-03-24T08:35:54;5.15;;;1.20;;
25980;SDS011;13772;52.996;9.124;2023-03-24T08:38:24;7.03;;;1.52;;
25980;SDS011;13772;52.996;9.124;2023-03-24T08:41:03;4.22;;;1.10;;
25980;SDS011;13772;52.996;9.124;2023-03-24T08:43:30;8.07;;;1.85;;
25980;SDS011;13772;52.996;9.124;2023-03-24T08:45:56;7.85;;;1.23;;
25980;SDS011;13772;52.996;9.124;2023-03-24T08:48:21;8.00;;;1.40;;
25980;SDS011;13772;52.996;9.124;2023-03-24T08:50:47;7.15;;;1.42;;
25980;SDS011;13772;52.996;9.124;2023-03-24T08:53:12;6.78;;;1.67;;
25980;SDS011;13772;52.996;9.124;2023-03-24T08:55:38;8.77;;;1.67;;
25980;SDS011;13772;52.996;9.124;2023-03-24T08:58:06;9.73;;;1.48;;
25980;SDS011;13772;52.996;9.124;2023-03-24T09:00:31;8.65;;;1.60;;
25980;SDS011;13772;52.996;9.124;2023-03-24T09:02:57;6.60;;;1.77;;
25980;SDS011;13772;52.996;9.124;2023-03-24T09:05:23;8.30;;;1.50;;
25980;SDS011;13772;52.996;9.124;2023-03-24T09:07:49;9.52;;;1.88;;
25980;SDS011;13772;52.996;9.124;2023-03-24T09:10:15;5.38;;;1.73;;
25980;SDS011;13772;52.996;9.124;2023-03-24T09:12:41;8.40;;;2.20;;
25980;SDS011;13772;52.996;9.124;2023-03-24T09:15:07;7.30;;;1.90;;
25980;SDS011;13772;52.996;9.124;2023-03-24T09:17:33;5.88;;;1.88;;
25980;SDS011;13772;52.996;9.124;2023-03-24T09:19:58;4.25;;;1.40;;
25980;SDS011;13772;52.996;9.124;2023-03-24T09:22:23;9.63;;;1.75;;
25980;SDS011;13772;52.996;9.124;2023-03-24T09:24:48;5.65;;;1.52;;
25980;SDS011;13772;52.996;9.124;2023-03-24T09:27:17;5.93;;;1.50;;
25980;SDS011;13772;52.996;9.124;2023-03-24T09:29:42;8.50;;;1.87;;
25980;SDS011;13772;52.996;9.124;2023-03-24T09:32:08;7.03;;;2.00;;
25980;SDS011;13772;52.996;9.124;2023-03-24T09:34:33;5.53;;;1.70;;
25980;SDS011;13772;52.996;9.124;2023-03-24T09:36:59;6.85;;;1.85;;
25980;SDS011;13772;52.996;9.124;2023-03-24T09:39:24;8.13;;;1.50;;
25980;SDS011;13772;52.996;9.124;2023-03-24T09:41:49;6.75;;;1.67;;
25980;SDS011;13772;52.996;9.124;2023-03-24T09:44:26;10.15;;;2.30;;
25980;SDS011;13772;52.996;9.124;2023-03-24T09:46:53;9.00;;;1.75;;
25980;SDS011;13772;52.996;9.124;2023-03-24T09:49:22;7.47;;;1.58;;
25980;SDS011;13772;52.996;9.124;2023-03-24T09:51:48;8.35;;;1.90;;
25980;SDS011;13772;52.996;9.124;2023-03-24T09:54:20;6.45;;;1.83;;
25980;SDS011;13772;52.996;9.124;2023-03-24T09:56:51;8.88;;;1.63;;
25980;SDS011;13772;52.996;9.124;2023-03-24T09:59:18;7.82;;;2.05;;
25980;SDS011;13772;52.996;9.124;2023-03-24T10:01:46;9.90;;;2.22;;
25980;SDS011;13772;52.996;9.124;2023-03-24T10:04:13;10.02;;;1.90;;
25980;SDS011;13772;52.996;9.124;2023-03-24T10:06:39;12.77;;;1.80;;
25980;SDS011;13772;52.996;9.124;2023-03-24T10:17:16;7.63;;;1.95;;
25980;SDS011;13772;52.996;9.124;2023-03-24T10:19:47;9.38;;;1.88;;
25980;SDS011;13772;52.996;9.124;2023-03-24T10:22:21;11.55;;;1.80;;
25980;SDS011;13772;52.996;9.124;2023-03-24T10:29:49;7.97;;;1.70;;
25980;SDS011;13772;52.996;9.124;2023-03-24T10:32:18;8.48;;;1.73;;
25980;SDS011;13772;52.996;9.124;2023-03-24T10:34:47;11.48;;;2.60;;
25980;SDS011;13772;52.996;9.124;2023-03-24T10:37:13;6.88;;;1.83;;
25980;SDS011;13772;52.996;9.124;2023-03-24T10:39:39;9.48;;;1.77;;
25980;SDS011;13772;52.996;9.124;2023-03-24T10:42:04;10.40;;;2.13;;
25980;SDS011;13772;52.996;9.124;2023-03-24T10:44:29;8.15;;;2.10;;
25980;SDS011;13772;52.996;9.124;2023-03-24T10:46:56;12.63;;;2.30;;
25980;SDS011;13772;52.996;9.124;2023-03-24T10:49:22;12.25;;;2.25;;
25980;SDS011;13772;52.996;9.124;2023-03-24T10:51:48;11.05;;;2.28;;
25980;SDS011;13772;52.996;9.124;2023-03-24T10:54:18;10.55;;;1.70;;
25980;SDS011;13772;52.996;9.124;2023-03-24T10:56:45;9.60;;;1.65;;
25980;SDS011;13772;52.996;9.124;2023-03-24T11:04:33;9.05;;;1.90;;
25980;SDS011;13772;52.996;9.124;2023-03-24T11:09:41;11.77;;;2.25;;
25980;SDS011;13772;52.996;9.124;2023-03-24T11:12:19;7.07;;;2.17;;
25980;SDS011;13772;52.996;9.124;2023-03-24T11:14:44;9.43;;;2.40;;
25980;SDS011;13772;52.996;9.124;2023-03-24T11:17:11;9.27;;;2.30;;
25980;SDS011;13772;52.996;9.124;2023-03-24T11:19:36;10.75;;;2.45;;
25980;SDS011;13772;52.996;9.124;2023-03-24T11:22:02;13.07;;;2.38;;
25980;SDS011;13772;52.996;9.124;2023-03-24T11:24:29;10.77;;;2.47;;
25980;SDS011;13772;52.996;9.124;2023-03-24T11:26:56;11.10;;;2.10;;
25980;SDS011;13772;52.996;9.124;2023-03-24T11:29:24;10.10;;;1.98;;
25980;SDS011;13772;52.996;9.124;2023-03-24T11:31:52;8.77;;;1.88;;
25980;SDS011;13772;52.996;9.124;2023-03-24T11:34:22;7.40;;;1.77;;
25980;SDS011;13772;52.996;9.124;2023-03-24T11:36:52;10.68;;;2.30;;
25980;SDS011;13772;52.996;9.124;2023-03-24T11:42:03;8.18;;;2.00;;
25980;SDS011;13772;52.996;9.124;2023-03-24T11:44:40;11.35;;;1.77;;
25980;SDS011;13772;52.996;9.124;2023-03-24T11:49:42;8.48;;;2.15;;
25980;SDS011;13772;52.996;9.124;2023-03-24T11:52:13;9.88;;;2.08;;
25980;SDS011;13772;52.996;9.124;2023-03-24T11:54:39;6.05;;;1.50;;
25980;SDS011;13772;52.996;9.124;2023-03-24T11:57:10;8.98;;;2.22;;
25980;SDS011;13772;52.996;9.124;2023-03-24T11:59:41;5.43;;;2.05;;
25980;SDS011;13772;52.996;9.124;2023-03-24T12:02:17;8.02;;;2.45;;
25980;SDS011;13772;52.996;9.124;2023-03-24T12:04:53;10.05;;;2.08;;
25980;SDS011;13772;52.996;9.124;2023-03-24T12:07:38;7.63;;;1.90;;
25980;SDS011;13772;52.996;9.124;2023-03-24T12:10:15;11.73;;;2.25;;
25980;SDS011;13772;52.996;9.124;2023-03-24T12:15:31;8.40;;;1.98;;
25980;SDS011;13772;52.996;9.124;2023-03-24T12:18:08;8.02;;;2.08;;
25980;SDS011;13772;52.996;9.124;2023-03-24T12:23:03;9.52;;;2.05;;
25980;SDS011;13772;52.996;9.124;2023-03-24T12:25:41;7.47;;;1.60;;
25980;SDS011;13772;52.996;9.124;2023-03-24T12:30:37;9.18;;;2.15;;
25980;SDS011;13772;52.996;9.124;2023-03-24T12:33:16;9.57;;;2.00;;
25980;SDS011;13772;52.996;9.124;2023-03-24T12:35:54;8.07;;;2.10;;
25980;SDS011;13772;52.996;9.124;2023-03-24T12:43:45;7.38;;;2.13;;
25980;SDS011;13772;52.996;9.124;2023-03-24T12:46:17;9.50;;;1.90;;
25980;SDS011;13772;52.996;9.124;2023-03-24T13:03:45;7.53;;;1.67;;
25980;SDS011;13772;52.996;9.124;2023-03-24T13:06:19;9.30;;;2.45;;
25980;SDS011;13772;52.996;9.124;2023-03-24T13:09:01;7.63;;;2.20;;
25980;SDS011;13772;52.996;9.124;2023-03-24T13:11:30;7.60;;;1.95;;
25980;SDS011;13772;52.996;9.124;2023-03-24T13:13:59;8.55;;;1.70;;
25980;SDS011;13772;52.996;9.124;2023-03-24T13:16:27;7.03;;;1.63;;
25980;SDS011;13772;52.996;9.124;2023-03-24T13:18:54;8.45;;;1.83;;
25980;SDS011;13772;52.996;9.124;2023-03-24T13:21:21;7.20;;;1.77;;
25980;SDS011;13772;52.996;9.124;2023-03-24T13:23:51;8.43;;;1.73;;
25980;SDS011;13772;52.996;9.124;2023-03-24T13:31:12;5.07;;;1.57;;
25980;SDS011;13772;52.996;9.124;2023-03-24T13:33:38;6.90;;;1.45;;
25980;SDS011;13772;52.996;9.124;2023-03-24T13:38:49;6.57;;;2.13;;
25980;SDS011;13772;52.996;9.124;2023-03-24T13:41:17;10.77;;;2.45;;
25980;SDS011;13772;52.996;9.124;2023-03-24T13:43:46;5.75;;;1.83;;
25980;SDS011;13772;52.996;9.124;2023-03-24T13:46:12;6.85;;;1.63;;
25980;SDS011;13772;52.996;9.124;2023-03-24T13:48:39;6.68;;;2.08;;
25980;SDS011;13772;52.996;9.124;2023-03-24T13:51:14;6.82;;;1.50;;
25980;SDS011;13772;52.996;9.124;2023-03-24T13:53:45;8.18;;;1.92;;
25980;SDS011;13772;52.996;9.124;2023-03-24T13:56:19;8.18;;;1.63;;
25980;SDS011;13772;52.996;9.124;2023-03-24T13:59:08;10.57;;;2.10;;
25980;SDS011;13772;52.996;9.124;2023-03-24T14:01:39;10.25;;;2.05;;
25980;SDS011;13772;52.996;9.124;2023-03-24T14:06:45;7.68;;;2.20;;
25980;SDS011;13772;52.996;9.124;2023-03-24T14:09:15;9.68;;;2.22;;
25980;SDS011;13772;52.996;9.124;2023-03-24T14:11:47;9.10;;;2.30;;
25980;SDS011;13772;52.996;9.124;2023-03-24T14:16:42;8.18;;;2.08;;
25980;SDS011;13772;52.996;9.124;2023-03-24T14:21:55;9.15;;;1.50;;
25980;SDS011;13772;52.996;9.124;2023-03-24T14:24:22;6.05;;;1.70;;
25980;SDS011;13772;52.996;9.124;2023-03-24T14:26:48;5.45;;;1.42;;
25980;SDS011;13772;52.996;9.124;2023-03-24T14:32:00;4.72;;;1.35;;
25980;SDS011;13772;52.996;9.124;2023-03-24T14:34:26;6.03;;;1.45;;
25980;SDS011;13772;52.996;9.124;2023-03-24T14:36:56;6.72;;;1.52;;
25980;SDS011;13772;52.996;9.124;2023-03-24T14:39:26;6.72;;;1.63;;
25980;SDS011;13772;52.996;9.124;2023-03-24T14:41:53;7.55;;;1.55;;
25980;SDS011;13772;52.996;9.124;2023-03-24T14:47:02;6.93;;;1.50;;
25980;SDS011;13772;52.996;9.124;2023-03-24T14:49:29;6.07;;;1.58;;
25980;SDS011;13772;52.996;9.124;2023-03-24T14:51:56;7.43;;;1.92;;
25980;SDS011;13772;52.996;9.124;2023-03-24T14:54:27;6.88;;;1.65;;
25980;SDS011;13772;52.996;9.124;2023-03-24T14:56:54;11.48;;;2.17;;
25980;SDS011;13772;52.996;9.124;2023-03-24T15:01:44;8.23;;;1.98;;
25980;SDS011;13772;52.996;9.124;2023-03-24T15:04:12;8.75;;;2.13;;
25980;SDS011;13772;52.996;9.124;2023-03-24T15:06:47;8.68;;;1.98;;
25980;SDS011;13772;52.996;9.124;2023-03-24T15:09:16;9.23;;;2.08;;
25980;SDS011;13772;52.996;9.124;2023-03-24T15:11:41;7.78;;;1.60;;
25980;SDS011;13772;52.996;9.124;2023-03-24T15:14:19;6.50;;;1.67;;
25980;SDS011;13772;52.996;9.124;2023-03-24T15:16:49;8.32;;;1.80;;
25980;SDS011;13772;52.996;9.124;2023-03-24T15:19:23;7.13;;;1.52;;
25980;SDS011;13772;52.996;9.124;2023-03-24T15:21:57;8.38;;;2.20;;
25980;SDS011;13772;52.996;9.124;2023-03-24T15:26:54;8.43;;;1.90;;
25980;SDS011;13772;52.996;9.124;2023-03-24T15:29:20;6.50;;;1.70;;
25980;SDS011;13772;52.996;9.124;2023-03-24T15:31:45;6.13;;;1.65;;
25980;SDS011;13772;52.996;9.124;2023-03-24T15:34:25;7.82;;;1.70;;
25980;SDS011;13772;52.996;9.124;2023-03-24T15:39:18;7.00;;;1.63;;
25980;SDS011;13772;52.996;9.124;2023-03-24T15:41:43;7.95;;;1.60;;
25980;SDS011;13772;52.996;9.124;2023-03-24T15:44:09;5.40;;;1.75;;
25980;SDS011;13772;52.996;9.124;2023-03-24T15:46:41;7.10;;;1.75;;
25980;SDS011;13772;52.996;9.124;2023-03-24T15:51:45;6.50;;;1.60;;
25980;SDS011;13772;52.996;9.124;2023-03-24T15:54:20;8.20;;;1.70;;
25980;SDS011;13772;52.996;9.124;2023-03-24T15:56:59;9.30;;;1.50;;
25980;SDS011;13772;52.996;9.124;2023-03-24T15:59:31;5.25;;;1.50;;
25980;SDS011;13772;52.996;9.124;2023-03-24T16:01:56;3.53;;;0.82;;
25980;SDS011;13772;52.996;9.124;2023-03-24T16:04:21;3.05;;;0.85;;
25980;SDS011;13772;52.996;9.124;2023-03-24T16:06:51;5.95;;;1.48;;
25980;SDS011;13772;52.996;9.124;2023-03-24T16:09:19;3.85;;;0.95;;
25980;SDS011;13772;52.996;9.124;2023-03-24T16:11:46;7.03;;;0.90;;
25980;SDS011;13772;52.996;9.124;2023-03-24T16:14:32;6.00;;;1.20;;
25980;SDS011;13772;52.996;9.124;2023-03-24T16:16:58;4.68;;;1.17;;
25980;SDS011;13772;52.996;9.124;2023-03-24T16:19:23;2.90;;;0.90;;
25980;SDS011;13772;52.996;9.124;2023-03-24T16:21:49;4.63;;;1.50;;
25980;SDS011;13772;52.996;9.124;2023-03-24T16:24:14;4.43;;;1.10;;
25980;SDS011;13772;52.996;9.124;2023-03-24T16:26:41;7.13;;;1.33;;
25980;SDS011;13772;52.996;9.124;2023-03-24T16:31:37;6.50;;;1.45;;
25980;SDS011;13772;52.996;9.124;2023-03-24T16:34:02;6.63;;;1.20;;
25980;SDS011;13772;52.996;9.124;2023-03-24T16:36:28;5.50;;;1.50;;
25980;SDS011;13772;52.996;9.124;2023-03-24T16:38:54;4.22;;;1.15;;
25980;SDS011;13772;52.996;9.124;2023-03-24T16:41:19;4.88;;;1.50;;
25980;SDS011;13772;52.996;9.124;2023-03-24T16:43:45;8.25;;;1.42;;
25980;SDS011;13772;52.996;9.124;2023-03-24T16:46:14;6.53;;;1.30;;
25980;SDS011;13772;52.996;9.124;2023-03-24T16:48:40;6.35;;;1.52;;
25980;SDS011;13772;52.996;9.124;2023-03-24T16:51:08;5.45;;;0.90;;
25980;SDS011;13772;52.996;9.124;2023-03-24T16:53:34;3.30;;;0.85;;
25980;SDS011;13772;52.996;9.124;2023-03-24T16:55:59;3.53;;;0.90;;
25980;SDS011;13772;52.996;9.124;2023-03-24T16:58:24;2.75;;;0.55;;
25980;SDS011;13772;52.996;9.124;2023-03-24T17:00:50;4.10;;;0.85;;
25980;SDS011;13772;52.996;9.124;2023-03-24T17:03:15;4.03;;;0.57;;
25980;SDS011;13772;52.996;9.124;2023-03-24T17:05:42;3.45;;;0.65;;
25980;SDS011;13772;52.996;9.124;2023-03-24T17:08:08;2.90;;;0.70;;
25980;SDS011;13772;52.996;9.124;2023-03-24T17:10:34;3.17;;;0.68;;
25980;SDS011;13772;52.996;9.124;2023-03-24T17:12:59;4.75;;;1.05;;
25980;SDS011;13772;52.996;9.124;2023-03-24T17:15:27;4.88;;;0.82;;
25980;SDS011;13772;52.996;9.124;2023-03-24T17:17:53;2.95;;;0.98;;
25980;SDS011;13772;52.996;9.124;2023-03-24T17:20:19;7.20;;;0.73;;
25980;SDS011;13772;52.996;9.124;2023-03-24T17:22:45;2.13;;;0.63;;
25980;SDS011;13772;52.996;9.124;2023-03-24T17:25:15;1.77;;;0.60;;
25980;SDS011;13772;52.996;9.124;2023-03-24T17:27:40;3.15;;;0.93;;
25980;SDS011;13772;52.996;9.124;2023-03-24T17:30:06;2.17;;;0.90;;
25980;SDS011;13772;52.996;9.124;2023-03-24T17:32:32;1.77;;;0.95;;
25980;SDS011;13772;52.996;9.124;2023-03-24T17:34:57;3.92;;;0.95;;
25980;SDS011;13772;52.996;9.124;2023-03-24T17:37:24;2.85;;;0.80;;
25980;SDS011;13772;52.996;9.124;2023-03-24T17:39:50;2.42;;;0.60;;
25980;SDS011;13772;52.996;9.124;2023-03-24T17:42:15;1.13;;;0.50;;
25980;SDS011;13772;52.996;9.124;2023-03-24T17:44:40;3.20;;;0.95;;
25980;SDS011;13772;52.996;9.124;2023-03-24T17:47:05;2.85;;;0.65;;
25980;SDS011;13772;52.996;9.124;2023-03-24T17:49:31;3.53;;;0.82;;
25980;SDS011;13772;52.996;9.124;2023-03-24T17:51:57;3.88;;;0.63;;
25980;SDS011;13772;52.996;9.124;2023-03-24T17:54:22;5.07;;;0.98;;
25980;SDS011;13772;52.996;9.124;2023-03-24T17:56:49;2.85;;;0.80;;
25980;SDS011;13772;52.996;9.124;2023-03-24T17:59:14;2.75;;;1.13;;
25980;SDS011;13772;52.996;9.124;2023-03-24T18:01:40;4.57;;;0.85;;
25980;SDS011;13772;52.996;9.124;2023-03-24T18:04:05;4.07;;;0.70;;
25980;SDS011;13772;52.996;9.124;2023-03-24T18:06:30;4.05;;;1.40;;
25980;SDS011;13772;52.996;9.124;2023-03-24T18:08:56;4.22;;;1.25;;
25980;SDS011;13772;52.996;9.124;2023-03-24T18:11:24;4.13;;;1.40;;
25980;SDS011;13772;52.996;9.124;2023-03-24T18:13:49;3.22;;;1.10;;
25980;SDS011;13772;52.996;9.124;2023-03-24T18:16:16;4.75;;;1.30;;
25980;SDS011;13772;52.996;9.124;2023-03-24T18:18:41;4.18;;;0.90;;
25980;SDS011;13772;52.996;9.124;2023-03-24T18:21:08;3.17;;;1.13;;
25980;SDS011;13772;52.996;9.124;2023-03-24T18:23:34;2.83;;;1.10;;
25980;SDS011;13772;52.996;9.124;2023-03-24T18:26:02;2.42;;;1.00;;
25980;SDS011;13772;52.996;9.124;2023-03-24T18:28:28;4.25;;;1.30;;
25980;SDS011;13772;52.996;9.124;2023-03-24T18:30:54;4.32;;;1.00;;
25980;SDS011;13772;52.996;9.124;2023-03-24T18:33:21;3.53;;;1.08;;
25980;SDS011;13772;52.996;9.124;2023-03-24T18:35:55;5.43;;;0.90;;
25980;SDS011;13772;52.996;9.124;2023-03-24T18:38:21;2.33;;;0.82;;
25980;SDS011;13772;52.996;9.124;2023-03-24T18:40:59;3.03;;;1.10;;
25980;SDS011;13772;52.996;9.124;2023-03-24T18:43:24;4.22;;;1.05;;
25980;SDS011;13772;52.996;9.124;2023-03-24T18:45:50;4.40;;;1.15;;
25980;SDS011;13772;52.996;9.124;2023-03-24T18:48:15;2.05;;;1.20;;
25980;SDS011;13772;52.996;9.124;2023-03-24T18:50:41;4.93;;;1.50;;
25980;SDS011;13772;52.996;9.124;2023-03-24T18:53:06;3.05;;;1.27;;
25980;SDS011;13772;52.996;9.124;2023-03-24T18:55:31;4.20;;;1.20;;
25980;SDS011;13772;52.996;9.124;2023-03-24T18:57:56;3.90;;;1.15;;
25980;SDS011;13772;52.996;9.124;2023-03-24T19:00:22;2.75;;;1.20;;
25980;SDS011;13772;52.996;9.124;2023-03-24T19:02:49;5.72;;;1.00;;
25980;SDS011;13772;52.996;9.124;2023-03-24T19:05:14;5.45;;;1.13;;
25980;SDS011;13772;52.996;9.124;2023-03-24T19:07:39;4.47;;;1.13;;
25980;SDS011;13772;52.996;9.124;2023-03-24T19:10:05;3.90;;;1.10;;
25980;SDS011;13772;52.996;9.124;2023-03-24T19:12:30;5.28;;;1.05;;
25980;SDS011;13772;52.996;9.124;2023-03-24T19:14:55;2.88;;;0.95;;
25980;SDS011;13772;52.996;9.124;2023-03-24T19:17:20;3.28;;;1.20;;
25980;SDS011;13772;52.996;9.124;2023-03-24T19:19:47;5.22;;;1.23;;
25980;SDS011;13772;52.996;9.124;2023-03-24T19:22:12;3.13;;;1.20;;
25980;SDS011;13772;52.996;9.124;2023-03-24T19:24:40;4.15;;;0.90;;
25980;SDS011;13772;52.996;9.124;2023-03-24T19:27:05;5.10;;;1.10;;
25980;SDS011;13772;52.996;9.124;2023-03-24T19:29:32;3.65;;;1.40;;
25980;SDS011;13772;52.996;9.124;2023-03-24T19:31:57;8.20;;;1.20;;
25980;SDS011;13772;52.996;9.124;2023-03-24T19:34:22;4.38;;;1.40;;
25980;SDS011;13772;52.996;9.124;2023-03-24T19:36:48;3.97;;;1.45;;
25980;SDS011;13772;52.996;9.124;2023-03-24T19:39:14;3.78;;;1.02;;
25980;SDS011;13772;52.996;9.124;2023-03-24T19:41:39;7.07;;;1.80;;
25980;SDS011;13772;52.996;9.124;2023-03-24T19:44:05;5.80;;;1.73;;
25980;SDS011;13772;52.996;9.124;2023-03-24T19:46:30;3.25;;;0.93;;
25980;SDS011;13772;52.996;9.124;2023-03-24T19:48:55;5.85;;;1.50;;
25980;SDS011;13772;52.996;9.124;2023-03-24T19:51:21;4.75;;;0.98;;
25980;SDS011;13772;52.996;9.124;2023-03-24T19:53:47;5.43;;;1.35;;
25980;SDS011;13772;52.996;9.124;2023-03-24T19:56:13;3.88;;;1.00;;
25980;SDS011;13772;52.996;9.124;2023-03-24T19:58:41;5.72;;;1.40;;
25980;SDS011;13772;52.996;9.124;2023-03-24T20:01:06;3.38;;;1.02;;
25980;SDS011;13772;52.996;9.124;2023-03-24T20:03:31;3.58;;;1.10;;
25980;SDS011;13772;52.996;9.124;2023-03-24T20:06:01;5.25;;;1.10;;
25980;SDS011;13772;52.996;9.124;2023-03-24T20:08:26;5.13;;;1.13;;
25980;SDS011;13772;52.996;9.124;2023-03-24T20:10:52;5.70;;;1.13;;
25980;SDS011;13772;52.996;9.124;2023-03-24T20:13:17;3.00;;;0.98;;
25980;SDS011;13772;52.996;9.124;2023-03-24T20:15:44;6.45;;;1.10;;
25980;SDS011;13772;52.996;9.124;2023-03-24T20:18:09;3.20;;;0.90;;
25980;SDS011;13772;52.996;9.124;2023-03-24T20:20:35;2.97;;;0.98;;
25980;SDS011;13772;52.996;9.124;2023-03-24T20:23:00;1.90;;;0.85;;
25980;SDS011;13772;52.996;9.124;2023-03-24T20:25:25;2.67;;;0.80;;
25980;SDS011;13772;52.996;9.124;2023-03-24T20:27:51;3.17;;;1.25;;
25980;SDS011;13772;52.996;9.124;2023-03-24T20:30:16;2.47;;;0.90;;
25980;SDS011;13772;52.996;9.124;2023-03-24T20:32:42;2.17;;;1.00;;
25980;SDS011;13772;52.996;9.124;2023-03-24T20:35:08;2.90;;;0.70;;
25980;SDS011;13772;52.996;9.124;2023-03-24T20:37:33;3.78;;;0.90;;
25980;SDS011;13772;52.996;9.124;2023-03-24T20:40:00;1.95;;;0.80;;
25980;SDS011;13772;52.996;9.124;2023-03-24T20:42:25;4.20;;;1.20;;
25980;SDS011;13772;52.996;9.124;2023-03-24T20:44:52;4.07;;;1.00;;
25980;SDS011;13772;52.996;9.124;2023-03-24T20:47:17;3.45;;;1.00;;
25980;SDS011;13772;52.996;9.124;2023-03-24T20:49:43;2.85;;;0.98;;
25980;SDS011;13772;52.996;9.124;2023-03-24T20:52:08;3.00;;;1.20;;
25980;SDS011;13772;52.996;9.124;2023-03-24T20:54:34;3.15;;;1.40;;
25980;SDS011;13772;52.996;9.124;2023-03-24T20:56:59;3.63;;;1.30;;
25980;SDS011;13772;52.996;9.124;2023-03-24T20:59:24;3.75;;;1.30;;
25980;SDS011;13772;52.996;9.124;2023-03-24T21:01:50;5.95;;;1.38;;
25980;SDS011;13772;52.996;9.124;2023-03-24T21:04:15;4.95;;;1.40;;
25980;SDS011;13772;52.996;9.124;2023-03-24T21:06:41;2.90;;;1.27;;
25980;SDS011;13772;52.996;9.124;2023-03-24T21:09:07;3.17;;;1.52;;
25980;SDS011;13772;52.996;9.124;2023-03-24T21:11:32;4.28;;;1.52;;
25980;SDS011;13772;52.996;9.124;2023-03-24T21:13:58;5.05;;;1.83;;
25980;SDS011;13772;52.996;9.124;2023-03-24T21:16:23;4.35;;;1.60;;
25980;SDS011;13772;52.996;9.124;2023-03-24T21:18:50;5.20;;;1.90;;
25980;SDS011;13772;52.996;9.124;2023-03-24T21:21:18;5.22;;;2.00;;
25980;SDS011;13772;52.996;9.124;2023-03-24T21:23:43;4.88;;;2.10;;
25980;SDS011;13772;52.996;9.124;2023-03-24T21:26:10;7.45;;;2.13;;
25980;SDS011;13772;52.996;9.124;2023-03-24T21:28:36;6.50;;;2.50;;
25980;SDS011;13772;52.996;9.124;2023-03-24T21:31:07;5.78;;;2.30;;
25980;SDS011;13772;52.996;9.124;2023-03-24T21:33:32;10.32;;;3.35;;
25980;SDS011;13772;52.996;9.124;2023-03-24T21:35:58;5.47;;;2.50;;
25980;SDS011;13772;52.996;9.124;2023-03-24T21:38:23;6.80;;;2.85;;
25980;SDS011;13772;52.996;9.124;2023-03-24T21:40:55;6.15;;;3.30;;
25980;SDS011;13772;52.996;9.124;2023-03-24T21:43:21;8.27;;;2.97;;
25980;SDS011;13772;52.996;9.124;2023-03-24T21:45:46;6.80;;;3.15;;
25980;SDS011;13772;52.996;9.124;2023-03-24T21:48:18;6.32;;;2.88;;
25980;SDS011;13772;52.996;9.124;2023-03-24T21:50:43;5.88;;;3.15;;
25980;SDS011;13772;52.996;9.124;2023-03-24T21:53:08;5.32;;;3.10;;
25980;SDS011;13772;52.996;9.124;2023-03-24T21:55:39;7.65;;;3.22;;
25980;SDS011;13772;52.996;9.124;2023-03-24T21:58:04;7.30;;;3.13;;
25980;SDS011;13772;52.996;9.124;2023-03-24T22:00:29;7.28;;;3.50;;
25980;SDS011;13772;52.996;9.124;2023-03-24T22:02:57;7.72;;;3.03;;
25980;SDS011;13772;52.996;9.124;2023-03-24T22:05:25;7.43;;;3.65;;
25980;SDS011;13772;52.996;9.124;2023-03-24T22:07:53;10.38;;;3.50;;
25980;SDS011;13772;52.996;9.124;2023-03-24T22:10:20;8.57;;;3.38;;
25980;SDS011;13772;52.996;9.124;2023-03-24T22:12:49;9.05;;;3.65;;
25980;SDS011;13772;52.996;9.124;2023-03-24T22:15:15;9.10;;;3.70;;
25980;SDS011;13772;52.996;9.124;2023-03-24T22:17:40;9.80;;;3.55;;
25980;SDS011;13772;52.996;9.124;2023-03-24T22:20:06;9.77;;;3.60;;
25980;SDS011;13772;52.996;9.124;2023-03-24T22:22:33;8.98;;;3.70;;
25980;SDS011;13772;52.996;9.124;2023-03-24T22:24:59;10.07;;;3.45;;
25980;SDS011;13772;52.996;9.124;2023-03-24T22:27:24;8.07;;;3.55;;
25980;SDS011;13772;52.996;9.124;2023-03-24T22:29:49;9.05;;;3.38;;
25980;SDS011;13772;52.996;9.124;2023-03-24T22:32:14;5.72;;;3.05;;
25980;SDS011;13772;52.996;9.124;2023-03-24T22:34:40;6.25;;;2.45;;
25980;SDS011;13772;52.996;9.124;2023-03-24T22:37:05;9.70;;;3.10;;
25980;SDS011;13772;52.996;9.124;2023-03-24T22:39:30;6.03;;;2.50;;
25980;SDS011;13772;52.996;9.124;2023-03-24T22:41:57;8.48;;;2.75;;
25980;SDS011;13772;52.996;9.124;2023-03-24T22:44:22;7.35;;;2.60;;
25980;SDS011;13772;52.996;9.124;2023-03-24T22:46:47;7.85;;;2.60;;
25980;SDS011;13772;52.996;9.124;2023-03-24T22:49:13;6.90;;;2.85;;
25980;SDS011;13772;52.996;9.124;2023-03-24T22:51:38;6.13;;;3.15;;
25980;SDS011;13772;52.996;9.124;2023-03-24T22:54:03;6.72;;;2.95;;
25980;SDS011;13772;52.996;9.124;2023-03-24T22:56:28;6.63;;;3.22;;
25980;SDS011;13772;52.996;9.124;2023-03-24T22:58:54;6.55;;;3.28;;
